Time;durP1;ratioP1;P1;durP2;ratioP2;P2;SDS_P1;SDS_P2;PMS_P1;PMS_P2;Temp;Humidity;BMP_temperature;BMP_pressure;BME280_temperature;BME280_humidity;BME280_pressure;Samples;Min_cycle;Max_cycle;Signal;HPM_P1;HPM_P2
2023/10/16 00:02:23;;;;;;;11.00;4.97;;;3.00;99.90;;;;;;5029459;28;20455;-71
2023/10/16 00:04:53;;;;;;;12.80;5.03;;;3.10;99.90;;;;;;5029417;28;20547;-71
2023/10/16 00:07:21;;;;;;;12.87;4.60;;;3.20;99.90;;;;;;5029637;28;20453;-71
2023/10/16 00:09:53;;;;;;;13.90;4.83;;;3.40;99.90;;;;;;5029186;28;20541;-71
2023/10/16 00:12:23;;;;;;;12.90;5.23;;;3.40;99.90;;;;;;5029273;28;20452;-71
2023/10/16 00:14:51;;;;;;;10.20;4.80;;;3.40;99.90;;;;;;5029300;28;20482;-71
2023/10/16 00:17:21;;;;;;;10.20;4.07;;;3.40;99.90;;;;;;5028006;28;20480;-71
2023/10/16 00:19:54;;;;;;;12.50;5.00;;;3.40;99.90;;;;;;5029247;28;20959;-71
2023/10/16 00:22:25;;;;;;;11.43;5.03;;;3.40;99.90;;;;;;5029034;28;20453;-70
2023/10/16 00:24:58;;;;;;;10.20;4.63;;;3.40;99.90;;;;;;5029440;28;20544;-71
2023/10/16 00:27:27;;;;;;;10.60;4.50;;;3.10;99.90;;;;;;5028591;28;20452;-69
2023/10/16 00:29:56;;;;;;;14.77;5.13;;;2.90;99.90;;;;;;5028802;28;20522;-69
2023/10/16 00:32:24;;;;;;;11.10;4.57;;;2.80;99.90;;;;;;5028244;28;20516;-69
2023/10/16 00:34:52;;;;;;;9.40;4.27;;;2.70;99.90;;;;;;5028801;28;20472;-69
2023/10/16 00:37:21;;;;;;;10.03;4.60;;;2.70;99.90;;;;;;5029138;28;20494;-69
2023/10/16 00:39:50;;;;;;;12.77;4.63;;;2.60;99.90;;;;;;5028853;28;20459;-69
2023/10/16 00:42:18;;;;;;;11.70;4.77;;;2.50;99.90;;;;;;5028440;28;20445;-72
2023/10/16 00:44:48;;;;;;;9.90;4.17;;;2.40;99.90;;;;;;5028847;28;20475;-71
2023/10/16 00:47:16;;;;;;;10.13;4.20;;;2.30;99.90;;;;;;5029004;28;20498;-71
2023/10/16 00:49:47;;;;;;;11.20;4.80;;;2.30;99.90;;;;;;5029018;28;20514;-72
2023/10/16 00:52:15;;;;;;;12.07;4.63;;;2.30;99.90;;;;;;5028386;28;20444;-72
2023/10/16 00:54:46;;;;;;;11.80;4.23;;;2.40;99.90;;;;;;5028713;28;20482;-72
2023/10/16 00:57:16;;;;;;;10.47;4.30;;;2.50;99.90;;;;;;5027423;28;21087;-71
2023/10/16 00:59:44;;;;;;;10.43;4.33;;;2.40;99.90;;;;;;5028482;28;20459;-72
2023/10/16 01:02:14;;;;;;;10.35;4.78;;;2.30;99.90;;;;;;5028359;28;20455;-73
2023/10/16 01:04:43;;;;;;;9.35;3.85;;;2.40;99.90;;;;;;5028829;28;20282;-72
2023/10/16 01:07:14;;;;;;;9.30;4.20;;;2.30;99.90;;;;;;5028567;28;20198;-72
2023/10/16 01:09:43;;;;;;;10.27;4.23;;;2.40;99.90;;;;;;5028316;28;20452;-71
2023/10/16 01:12:12;;;;;;;11.07;4.03;;;2.30;99.90;;;;;;5028250;28;20976;-73
2023/10/16 01:14:41;;;;;;;10.07;4.00;;;2.20;99.90;;;;;;5028442;28;20467;-72
2023/10/16 01:17:10;;;;;;;11.53;4.17;;;2.10;99.90;;;;;;5028880;28;20295;-72
2023/10/16 01:19:41;;;;;;;9.13;3.90;;;2.10;99.90;;;;;;5028451;28;20488;-71
2023/10/16 01:22:11;;;;;;;10.70;3.67;;;2.20;99.90;;;;;;5028207;28;20437;-70
2023/10/16 01:24:44;;;;;;;9.97;4.03;;;2.20;99.90;;;;;;5028366;28;20550;-71
2023/10/16 01:27:26;;;;;;;10.07;3.70;;;2.20;99.90;;;;;;5028368;28;20444;-71
2023/10/16 01:29:56;;;;;;;9.23;3.63;;;2.20;99.90;;;;;;5028117;28;20205;-72
2023/10/16 01:32:25;;;;;;;10.60;3.73;;;2.40;99.90;;;;;;5028109;28;20454;-72
2023/10/16 01:34:54;;;;;;;8.00;3.43;;;2.30;99.90;;;;;;5028181;28;20480;-68
2023/10/16 01:37:23;;;;;;;10.40;4.47;;;2.20;99.90;;;;;;5028462;28;20460;-69
2023/10/16 01:39:54;;;;;;;8.60;3.60;;;2.10;99.90;;;;;;5028108;28;20538;-68
2023/10/16 01:42:23;;;;;;;10.13;4.43;;;2.20;99.90;;;;;;5027913;28;20444;-68
2023/10/16 01:44:52;;;;;;;10.07;4.00;;;2.10;99.90;;;;;;5027876;28;20471;-68
2023/10/16 01:47:20;;;;;;;13.03;3.60;;;2.20;99.90;;;;;;5028410;28;20452;-69
2023/10/16 01:49:49;;;;;;;8.15;3.40;;;2.10;99.90;;;;;;5027911;28;21259;-70
2023/10/16 01:52:17;;;;;;;9.68;3.00;;;2.00;99.90;;;;;;5027928;28;20694;-68
2023/10/16 01:54:46;;;;;;;10.82;3.85;;;2.00;99.90;;;;;;5028149;28;20262;-69
2023/10/16 01:57:16;;;;;;;11.68;4.28;;;2.00;99.90;;;;;;5028135;28;20205;-71
2023/10/16 01:59:47;;;;;;;11.55;4.28;;;2.00;99.90;;;;;;5027914;28;20222;-72
2023/10/16 02:02:17;;;;;;;12.70;3.85;;;2.10;99.90;;;;;;5027294;28;20779;-72
2023/10/16 02:04:46;;;;;;;12.23;4.83;;;2.10;99.90;;;;;;5027929;28;20251;-72
2023/10/16 02:07:14;;;;;;;10.80;4.70;;;2.10;99.90;;;;;;5028310;28;20441;-72
2023/10/16 02:09:42;;;;;;;10.03;3.43;;;1.90;99.90;;;;;;5027949;28;20206;-72
2023/10/16 02:12:14;;;;;;;8.77;3.65;;;2.10;99.90;;;;;;5027728;28;20946;-71
2023/10/16 02:14:45;;;;;;;13.48;4.50;;;2.00;99.90;;;;;;5028055;28;20232;-71
2023/10/16 02:17:19;;;;;;;11.00;4.20;;;2.10;99.90;;;;;;5027978;28;20449;-71
2023/10/16 02:19:48;;;;;;;9.83;4.17;;;2.10;99.90;;;;;;5027936;28;20233;-71
2023/10/16 02:22:17;;;;;;;10.30;3.83;;;1.90;99.90;;;;;;5027546;28;20541;-68
2023/10/16 02:24:48;;;;;;;10.15;3.50;;;1.90;99.90;;;;;;5027493;28;20286;-71
2023/10/16 02:27:18;;;;;;;9.82;3.40;;;2.00;99.90;;;;;;5027902;28;20217;-72
2023/10/16 02:29:51;;;;;;;10.10;4.05;;;2.00;99.90;;;;;;5026510;28;20212;-72
2023/10/16 02:32:22;;;;;;;9.93;4.22;;;1.80;99.90;;;;;;5027488;28;20216;-71
2023/10/16 02:34:51;;;;;;;9.20;3.50;;;1.70;99.90;;;;;;5027690;28;20231;-72
2023/10/16 02:37:20;;;;;;;10.50;4.18;;;1.80;99.90;;;;;;5028014;28;20212;-71
2023/10/16 02:39:53;;;;;;;10.48;3.95;;;2.00;99.90;;;;;;5027703;28;20660;-72
2023/10/16 02:42:25;;;;;;;13.27;3.90;;;2.00;99.90;;;;;;5029568;28;20222;-72
2023/10/16 02:44:56;;;;;;;13.27;3.95;;;1.80;99.90;;;;;;5031224;28;20241;-71
2023/10/16 02:47:26;;;;;;;11.18;3.33;;;1.70;99.90;;;;;;5031357;28;20209;-71
2023/10/16 02:49:56;;;;;;;11.02;4.50;;;1.70;99.90;;;;;;5031326;28;20290;-71
2023/10/16 02:52:25;;;;;;;10.25;3.63;;;1.60;99.90;;;;;;5031153;28;20874;-69
2023/10/16 02:54:56;;;;;;;10.40;3.45;;;1.50;99.90;;;;;;5030938;28;20242;-71
2023/10/16 02:57:26;;;;;;;11.20;4.20;;;1.50;99.90;;;;;;5031539;28;20661;-71
2023/10/16 02:59:56;;;;;;;10.48;3.40;;;1.50;99.90;;;;;;5031042;28;20706;-72
2023/10/16 03:02:27;;;;;;;9.38;3.97;;;1.60;99.90;;;;;;5031150;28;20207;-71
2023/10/16 03:05:10;;;;;;;9.00;3.30;;;1.60;99.90;;;;;;5031422;28;20318;-72
2023/10/16 03:07:39;;;;;;;9.88;3.70;;;1.50;99.90;;;;;;5031363;28;20253;-71
2023/10/16 03:10:10;;;;;;;9.48;3.50;;;1.50;99.90;;;;;;5030907;28;20667;-71
2023/10/16 03:12:38;;;;;;;12.05;3.53;;;1.60;99.90;;;;;;5030502;28;20218;-71
2023/10/16 03:15:15;;;;;;;9.77;4.10;;;1.60;99.90;;;;;;5030809;28;20232;-71
2023/10/16 03:17:43;;;;;;;10.23;4.35;;;1.60;99.90;;;;;;5030789;28;20208;-71
2023/10/16 03:20:19;;;;;;;11.35;4.03;;;1.60;99.90;;;;;;5030842;28;20258;-71
2023/10/16 03:22:48;;;;;;;9.80;4.20;;;1.50;99.90;;;;;;5030278;28;20208;-72
2023/10/16 03:25:28;;;;;;;9.20;3.10;;;1.70;99.90;;;;;;5030960;28;20720;-71
2023/10/16 03:27:56;;;;;;;8.05;2.92;;;1.80;99.90;;;;;;5030932;28;20270;-71
2023/10/16 03:30:28;;;;;;;10.45;3.78;;;1.70;99.90;;;;;;5030660;28;20213;-71
2023/10/16 03:32:58;;;;;;;8.80;3.65;;;1.70;99.90;;;;;;5030228;28;20234;-71
2023/10/16 03:35:29;;;;;;;8.23;3.50;;;1.60;99.90;;;;;;5030505;28;20662;-71
2023/10/16 03:37:58;;;;;;;10.23;4.43;;;1.50;99.90;;;;;;5030806;28;20312;-72
2023/10/16 03:40:27;;;;;;;10.38;3.85;;;1.40;99.90;;;;;;5030056;28;20223;-71
2023/10/16 03:42:56;;;;;;;10.82;3.47;;;1.40;99.90;;;;;;5029997;28;20207;-71
2023/10/16 03:45:26;;;;;;;10.43;4.25;;;1.40;99.90;;;;;;5030236;28;20257;-72
2023/10/16 03:47:57;;;;;;;11.25;3.70;;;1.40;99.90;;;;;;5030339;28;20713;-72
2023/10/16 03:50:34;;;;;;;9.63;3.45;;;1.40;99.90;;;;;;5030530;28;20211;-70
2023/10/16 03:53:02;;;;;;;9.80;3.33;;;1.20;99.90;;;;;;5029214;28;20212;-72
2023/10/16 03:55:32;;;;;;;13.27;4.00;;;1.20;99.90;;;;;;5030030;28;20234;-71
2023/10/16 03:58:00;;;;;;;9.25;3.72;;;1.10;99.90;;;;;;5029942;28;20572;-72
2023/10/16 04:00:43;;;;;;;9.07;3.22;;;1.20;99.90;;;;;;5029855;28;20247;-71
2023/10/16 04:03:15;;;;;;;8.45;3.40;;;1.30;99.90;;;;;;5030291;28;20204;-69
2023/10/16 04:05:46;;;;;;;10.55;3.33;;;1.20;99.90;;;;;;5029606;28;20227;-69
2023/10/16 04:08:14;;;;;;;11.52;4.10;;;1.20;99.90;;;;;;5030128;28;20294;-69
2023/10/16 04:10:46;;;;;;;12.30;4.78;;;1.10;99.90;;;;;;5029134;28;20202;-71
2023/10/16 04:13:15;;;;;;;9.70;4.13;;;1.20;99.90;;;;;;5029520;28;20290;-72
2023/10/16 04:16:11;;;;;;;10.57;3.85;;;1.20;99.90;;;;;;5029290;28;20240;-70
2023/10/16 04:18:44;;;;;;;9.63;4.07;;;1.20;99.90;;;;;;5029652;28;20298;-70
2023/10/16 04:24:04;;;;;;;9.25;3.67;;;1.20;99.90;;;;;;5013824;28;20255;-70
2023/10/16 04:27:28;;;;;;;9.73;3.55;;;1.20;99.90;;;;;;5029848;28;20211;-69
2023/10/16 04:29:49;;;;;;;9.27;3.47;;;1.10;99.90;;;;;;5028933;28;20204;-70
2023/10/16 04:32:37;;;;;;;8.93;3.50;;;1.20;99.90;;;;;;5029110;28;20210;-70
2023/10/16 04:35:29;;;;;;;10.90;4.18;;;1.20;99.90;;;;;;5029449;28;20573;-70
2023/10/16 04:37:55;;;;;;;9.63;3.40;;;1.10;99.90;;;;;;5028999;28;20246;-70
2023/10/16 04:43:19;;;;;;;8.70;3.42;;;1.10;99.90;;;;;;5027479;28;20715;-69
2023/10/16 04:46:15;;;;;;;8.35;3.55;;;1.10;99.90;;;;;;5028497;28;20276;-70
2023/10/16 04:48:51;;;;;;;9.25;3.65;;;1.00;99.90;;;;;;5028651;28;20217;-67
2023/10/16 04:51:27;;;;;;;10.75;4.40;;;0.90;99.90;;;;;;5028706;28;20217;-67
2023/10/16 04:54:13;;;;;;;8.95;3.97;;;0.80;99.90;;;;;;5027655;28;20261;-66
2023/10/16 04:57:37;;;;;;;9.57;3.65;;;0.80;99.90;;;;;;5028268;28;20210;-69
2023/10/16 04:59:59;;;;;;;10.80;3.53;;;0.80;99.90;;;;;;5028802;28;20259;-71
2023/10/16 05:02:41;;;;;;;12.95;4.65;;;0.80;99.90;;;;;;5029264;28;20206;-68
2023/10/16 05:08:30;;;;;;;9.68;3.50;;;1.10;99.90;;;;;;5028529;28;20223;-69
2023/10/16 05:13:43;;;;;;;8.43;2.92;;;1.10;99.90;;;;;;5027753;28;20206;-70
2023/10/16 05:16:30;;;;;;;8.75;3.33;;;1.10;99.90;;;;;;5027211;28;20202;-68
2023/10/16 05:19:15;;;;;;;11.25;4.05;;;1.20;99.90;;;;;;5028392;28;20218;-70
2023/10/16 05:22:02;;;;;;;8.82;3.25;;;1.10;99.90;;;;;;5027891;28;20273;-69
2023/10/16 06:14:24;;;;;;;10.85;4.55;;;1.10;99.90;;;;;;5028962;28;20612;-69
2023/10/16 06:16:53;;;;;;;10.68;3.67;;;1.10;99.90;;;;;;5031821;28;20217;-66
2023/10/16 06:19:22;;;;;;;9.18;4.03;;;1.20;99.90;;;;;;5032782;28;20234;-69
2023/10/16 06:21:52;;;;;;;11.20;4.13;;;1.20;99.90;;;;;;5032232;28;20225;-68
2023/10/16 06:24:32;;;;;;;13.65;4.35;;;1.10;99.90;;;;;;5032837;28;20276;-68
2023/10/16 06:27:08;;;;;;;10.48;4.40;;;1.30;99.90;;;;;;5032783;28;20296;-70
2023/10/16 06:29:40;;;;;;;9.88;3.60;;;1.30;99.90;;;;;;5032618;28;20211;-71
2023/10/16 06:32:18;;;;;;;11.38;5.13;;;1.50;99.90;;;;;;5032198;28;20226;-70
2023/10/16 06:34:47;;;;;;;10.98;4.93;;;1.40;99.90;;;;;;5032177;28;20234;-70
2023/10/16 06:37:17;;;;;;;10.45;4.10;;;1.40;99.90;;;;;;5032756;28;20203;-72
2023/10/16 06:39:46;;;;;;;19.40;5.07;;;1.40;99.90;;;;;;5032325;28;20212;-70
2023/10/16 06:42:17;;;;;;;10.05;4.05;;;1.60;99.90;;;;;;5032021;28;20223;-72
2023/10/16 06:44:50;;;;;;;11.00;4.38;;;1.60;99.90;;;;;;5032078;28;20243;-72
2023/10/16 06:47:23;;;;;;;11.57;4.45;;;1.70;99.90;;;;;;5032510;28;20206;-70
2023/10/16 06:49:52;;;;;;;10.63;4.53;;;1.80;99.90;;;;;;5032100;28;20640;-72
2023/10/16 06:52:20;;;;;;;9.90;4.40;;;1.90;99.90;;;;;;5031982;28;20210;-72
2023/10/16 06:54:48;;;;;;;12.52;5.57;;;1.90;99.90;;;;;;5031948;28;20232;-73
2023/10/16 06:57:19;;;;;;;18.63;5.75;;;1.90;99.90;;;;;;5032122;28;20200;-72
2023/10/16 06:59:50;;;;;;;11.27;5.10;;;2.00;99.90;;;;;;5032214;28;20267;-71
2023/10/16 07:02:20;;;;;;;13.70;4.60;;;2.10;99.90;;;;;;5031559;28;20219;-72
2023/10/16 07:04:49;;;;;;;13.38;6.30;;;2.30;99.90;;;;;;5031939;28;20557;-71
2023/10/16 07:07:18;;;;;;;13.48;6.80;;;2.40;99.90;;;;;;5030946;28;20519;-71
2023/10/16 07:09:49;;;;;;;11.90;5.87;;;2.50;99.90;;;;;;5031811;28;20441;-71
2023/10/16 07:12:18;;;;;;;12.50;6.87;;;2.70;99.90;;;;;;5031750;28;20443;-71
2023/10/16 07:14:55;;;;;;;10.47;5.37;;;2.70;99.90;;;;;;5031797;28;21006;-70
2023/10/16 07:17:25;;;;;;;10.77;5.17;;;2.80;99.90;;;;;;5032317;28;20483;-71
2023/10/16 07:19:58;;;;;;;10.07;4.93;;;3.00;99.90;;;;;;5031674;28;20551;-70
2023/10/16 07:22:31;;;;;;;12.90;5.33;;;3.30;99.90;;;;;;5031213;28;20484;-71
2023/10/16 07:25:08;;;;;;;12.73;4.10;;;3.30;99.90;;;;;;5031665;28;20471;-71
2023/10/16 07:27:37;;;;;;;11.03;5.13;;;3.10;99.90;;;;;;5031149;28;20893;-71
2023/10/16 07:30:21;;;;;;;11.80;4.43;;;3.00;99.90;;;;;;5031239;28;20930;-71
2023/10/16 07:32:50;;;;;;;11.07;4.57;;;3.10;99.90;;;;;;5030815;28;20452;-71
2023/10/16 07:35:18;;;;;;;12.77;4.90;;;3.40;99.90;;;;;;5031669;28;20478;-71
2023/10/16 07:37:48;;;;;;;13.97;4.67;;;3.60;99.90;;;;;;5031390;28;20456;-70
2023/10/16 07:40:19;;;;;;;10.10;4.43;;;3.60;99.90;;;;;;5031372;28;20451;-71
2023/10/16 07:42:47;;;;;;;10.67;4.50;;;3.70;99.90;;;;;;5030603;28;21049;-71
2023/10/16 07:45:17;;;;;;;9.30;3.77;;;3.80;99.90;;;;;;5031333;28;20496;-71
2023/10/16 07:47:47;;;;;;;11.80;4.87;;;3.90;99.90;;;;;;5031008;28;20441;-72
2023/10/16 07:50:16;;;;;;;10.90;4.33;;;4.00;99.90;;;;;;5031178;28;20464;-72
2023/10/16 07:52:44;;;;;;;8.70;3.70;;;4.10;99.90;;;;;;5030658;28;20506;-71
2023/10/16 07:55:18;;;;;;;10.00;4.20;;;4.10;99.90;;;;;;5022833;28;20560;-71
2023/10/16 07:57:48;;;;;;;11.50;4.33;;;4.20;99.90;;;;;;5030850;28;20504;-71
2023/10/16 08:00:25;;;;;;;10.20;4.63;;;4.30;99.90;;;;;;5031100;28;20449;-71
2023/10/16 08:03:04;;;;;;;12.00;4.30;;;4.50;99.90;;;;;;5030308;28;20488;-72
2023/10/16 08:05:33;;;;;;;10.80;4.73;;;4.70;99.90;;;;;;5030962;28;20519;-72
2023/10/16 08:08:11;;;;;;;12.37;4.80;;;4.80;99.90;;;;;;5030719;28;20452;-71
2023/10/16 08:10:42;;;;;;;9.87;4.23;;;4.90;99.90;;;;;;5030470;28;20441;-72
2023/10/16 08:13:12;;;;;;;10.50;4.47;;;5.10;99.90;;;;;;5030324;28;20453;-71
2023/10/16 08:15:48;;;;;;;9.20;3.93;;;5.10;99.90;;;;;;5030441;28;20465;-70
2023/10/16 08:18:18;;;;;;;10.43;4.77;;;5.20;99.90;;;;;;5023239;28;20800;-71
2023/10/16 08:21:06;;;;;;;10.87;4.83;;;5.40;99.90;;;;;;5030197;28;20496;-71
2023/10/16 08:23:38;;;;;;;12.03;4.53;;;5.50;99.90;;;;;;5030118;28;20546;-70
2023/10/16 08:26:14;;;;;;;9.20;4.40;;;5.70;99.90;;;;;;5030232;28;20441;-71
2023/10/16 08:28:45;;;;;;;10.67;4.37;;;5.90;99.90;;;;;;5030320;28;20454;-71
2023/10/16 08:33:57;;;;;;;12.23;4.63;;;6.30;99.90;;;;;;5027527;28;20479;-72
2023/10/16 08:36:26;;;;;;;10.43;4.67;;;6.50;99.90;;;;;;5030250;28;20533;-72
2023/10/16 08:38:54;;;;;;;12.33;5.07;;;6.80;99.90;;;;;;5030085;28;20454;-71
2023/10/16 08:41:32;;;;;;;10.13;4.30;;;6.90;99.90;;;;;;5029663;28;20485;-71
2023/10/16 08:44:07;;;;;;;14.10;5.27;;;7.10;99.90;;;;;;5029964;28;20476;-71
2023/10/16 08:46:45;;;;;;;10.30;4.93;;;7.20;99.90;;;;;;5030239;28;20449;-71
2023/10/16 08:49:14;;;;;;;11.00;4.10;;;7.30;99.90;;;;;;5021953;28;20445;-71
2023/10/16 08:51:42;;;;;;;8.93;4.53;;;7.40;99.90;;;;;;5029486;28;20441;-71
2023/10/16 08:56:54;;;;;;;10.03;4.73;;;7.90;99.90;;;;;;5029593;28;20487;-70
2023/10/16 08:59:26;;;;;;;9.90;4.40;;;8.00;99.90;;;;;;5030727;28;20501;-71
2023/10/16 09:01:57;;;;;;;10.00;4.63;;;7.80;99.90;;;;;;5029212;28;20481;-70
2023/10/16 09:04:28;;;;;;;9.87;4.20;;;7.80;99.90;;;;;;5029406;28;20465;-71
2023/10/16 09:06:57;;;;;;;11.73;4.90;;;7.90;99.90;;;;;;5029398;28;20520;-70
2023/10/16 09:09:27;;;;;;;10.33;5.43;;;7.90;99.90;;;;;;5029743;28;20477;-71
2023/10/16 09:12:01;;;;;;;12.73;4.90;;;8.00;99.90;;;;;;5029133;28;20456;-71
2023/10/16 09:14:32;;;;;;;10.37;4.90;;;8.30;99.90;;;;;;5029431;28;20465;-72
2023/10/16 09:17:02;;;;;;;15.17;5.33;;;8.50;99.90;;;;;;5029468;28;20449;-70
2023/10/16 09:19:33;;;;;;;9.93;4.60;;;8.40;99.90;;;;;;5029859;28;20445;-71
2023/10/16 09:22:04;;;;;;;11.37;4.57;;;8.40;99.90;;;;;;5029101;28;20850;-70
2023/10/16 09:24:33;;;;;;;9.93;4.70;;;8.40;99.90;;;;;;5029243;28;20470;-72
2023/10/16 09:27:02;;;;;;;13.93;4.97;;;8.70;99.90;;;;;;5029170;28;20454;-71
2023/10/16 09:29:35;;;;;;;11.13;4.20;;;9.00;99.90;;;;;;5029126;28;20533;-71
2023/10/16 09:32:06;;;;;;;10.60;4.60;;;9.30;99.90;;;;;;5028897;28;20983;-71
2023/10/16 09:34:35;;;;;;;9.57;4.03;;;9.30;99.90;;;;;;5029252;28;20966;-71
2023/10/16 09:37:18;;;;;;;9.73;4.30;;;9.50;99.90;;;;;;5029060;28;20949;-71
2023/10/16 09:39:48;;;;;;;9.30;4.33;;;9.60;99.90;;;;;;5029193;28;20445;-71
2023/10/16 09:42:24;;;;;;;11.13;4.10;;;9.80;99.90;;;;;;5028890;28;20502;-71
2023/10/16 09:44:59;;;;;;;10.83;4.43;;;10.20;99.90;;;;;;5029284;28;20504;-71
2023/10/16 09:47:30;;;;;;;11.53;4.70;;;10.50;99.90;;;;;;5029267;28;20502;-68
2023/10/16 09:50:00;;;;;;;9.00;4.20;;;11.00;99.90;;;;;;5029081;28;20450;-72
2023/10/16 09:52:31;;;;;;;8.27;3.60;;;11.10;99.90;;;;;;5032793;28;20436;-70
2023/10/16 09:55:00;;;;;;;8.70;3.70;;;11.60;99.90;;;;;;5033111;28;20482;-72
2023/10/16 09:57:30;;;;;;;8.10;3.43;;;12.00;99.90;;;;;;5033372;28;20483;-70
2023/10/16 10:00:23;;;;;;;8.80;3.80;;;12.20;99.90;;;;;;5033118;28;20447;-72
2023/10/16 10:02:52;;;;;;;9.70;4.07;;;12.10;99.90;;;;;;5032518;28;20576;-72
2023/10/16 10:05:31;;;;;;;13.40;5.73;;;11.90;99.90;;;;;;5033129;28;20482;-71
2023/10/16 10:08:01;;;;;;;10.50;4.47;;;12.00;99.90;;;;;;5033028;28;20487;-71
2023/10/16 10:13:21;;;;;;;9.13;4.33;;;11.30;99.90;;;;;;5002021;28;20456;-72
2023/10/16 10:15:52;;;;;;;9.97;4.47;;;11.70;99.90;;;;;;5032866;28;20523;-72
2023/10/16 10:18:42;;;;;;;9.73;4.03;;;12.40;99.90;;;;;;5033054;28;20446;-72
2023/10/16 10:21:18;;;;;;;10.33;4.40;;;13.00;99.90;;;;;;5032423;28;20448;-71
2023/10/16 10:23:48;;;;;;;8.75;3.78;;;13.40;99.90;;;;;;5031807;28;20498;-72
2023/10/16 10:26:20;;;;;;;9.00;3.10;;;14.10;99.90;;;;;;5033073;28;20212;-73
2023/10/16 10:29:05;;;;;;;8.77;3.10;;;14.40;99.90;;;;;;5032773;28;20523;-71
2023/10/16 10:31:34;;;;;;;9.03;3.63;;;14.90;99.90;;;;;;5026610;28;20441;-73
2023/10/16 10:34:18;;;;;;;8.23;3.80;;;15.50;99.90;;;;;;5032040;28;20462;-72
2023/10/16 10:36:47;;;;;;;10.17;3.50;;;15.60;97.80;;;;;;5032515;28;20963;-72
2023/10/16 10:39:40;;;;;;;7.70;3.20;;;15.40;96.50;;;;;;5032452;28;20438;-71
2023/10/16 10:42:16;;;;;;;10.77;3.40;;;15.20;94.80;;;;;;5032743;28;20881;-71
2023/10/16 10:44:55;;;;;;;8.60;3.30;;;14.80;95.30;;;;;;5032582;28;20548;-71
2023/10/16 10:47:30;;;;;;;8.50;2.90;;;13.70;96.60;;;;;;5032591;28;20444;-69
2023/10/16 10:50:00;;;;;;;8.63;3.30;;;13.70;97.60;;;;;;5032292;28;20444;-70
2023/10/16 10:52:32;;;;;;;7.83;3.40;;;14.60;98.00;;;;;;5032041;28;20447;-71
2023/10/16 10:55:07;;;;;;;8.63;2.90;;;15.30;92.90;;;;;;5031966;28;20473;-72
2023/10/16 10:57:39;;;;;;;7.20;2.80;;;14.80;92.80;;;;;;5032712;28;20444;-70
2023/10/16 11:00:32;;;;;;;7.93;3.40;;;15.20;93.10;;;;;;5032259;28;21003;-68
2023/10/16 11:03:08;;;;;;;8.47;2.83;;;15.80;92.60;;;;;;5030684;28;20511;-72
2023/10/16 11:05:42;;;;;;;10.00;2.93;;;16.80;88.40;;;;;;5032227;28;20514;-69
2023/10/16 11:08:25;;;;;;;8.50;3.03;;;16.90;83.00;;;;;;5032158;28;20445;-71
2023/10/16 11:10:56;;;;;;;8.20;2.30;;;17.20;81.40;;;;;;5031732;28;20469;-71
2023/10/16 11:13:26;;;;;;;7.67;2.37;;;17.70;81.60;;;;;;5032375;28;20448;-72
2023/10/16 11:15:57;;;;;;;8.83;2.60;;;18.30;75.50;;;;;;5031839;28;20452;-71
2023/10/16 11:18:28;;;;;;;10.50;2.60;;;18.10;73.20;;;;;;5031888;28;20449;-70
2023/10/16 11:21:04;;;;;;;7.63;2.30;;;16.90;69.80;;;;;;5031279;28;20456;-71
2023/10/16 11:23:32;;;;;;;9.20;2.63;;;16.30;74.40;;;;;;5031962;28;20503;-71
2023/10/16 11:26:00;;;;;;;8.73;2.10;;;16.70;74.20;;;;;;5031977;28;20449;-72
2023/10/16 11:28:31;;;;;;;6.90;2.00;;;17.50;74.00;;;;;;5031616;28;21004;-72
2023/10/16 11:31:04;;;;;;;6.60;1.20;;;17.70;73.10;;;;;;5031281;28;20481;-70
2023/10/16 11:33:43;;;;;;;7.20;1.63;;;18.90;64.40;;;;;;5031472;28;20473;-71
2023/10/16 11:36:14;;;;;;;9.73;1.90;;;19.70;63.80;;;;;;5031341;28;20449;-72
2023/10/16 11:38:44;;;;;;;7.97;1.43;;;20.60;57.20;;;;;;5031420;28;20453;-72
2023/10/16 11:41:16;;;;;;;7.53;1.60;;;21.00;57.00;;;;;;5030994;28;20508;-69
2023/10/16 11:43:52;;;;;;;6.40;1.20;;;21.50;52.90;;;;;;5031532;28;20942;-69
2023/10/16 11:46:34;;;;;;;6.73;1.50;;;21.90;53.10;;;;;;5031324;28;20467;-69
2023/10/16 11:49:22;;;;;;;6.93;1.20;;;22.60;48.80;;;;;;5030991;28;20452;-70
2023/10/16 11:51:53;;;;;;;6.50;1.23;;;22.90;48.10;;;;;;5031215;28;20511;-70
2023/10/16 11:54:23;;;;;;;6.77;1.37;;;23.00;49.30;;;;;;5031029;28;20497;-71
2023/10/16 11:56:53;;;;;;;7.00;1.70;;;22.70;46.20;;;;;;5031142;28;20444;-71
2023/10/16 11:59:26;;;;;;;7.10;1.83;;;21.90;46.30;;;;;;5031024;28;20445;-70
2023/10/16 12:02:00;;;;;;;7.03;1.50;;;20.90;44.80;;;;;;5030790;28;20552;-68
2023/10/16 12:04:32;;;;;;;6.43;1.57;;;20.60;49.10;;;;;;5031002;28;20489;-70
2023/10/16 12:07:02;;;;;;;8.30;1.27;;;20.10;46.20;;;;;;5030755;28;20548;-71
2023/10/16 12:09:36;;;;;;;6.87;1.30;;;19.40;49.20;;;;;;5031295;28;20437;-70
2023/10/16 12:12:07;;;;;;;7.13;1.87;;;19.00;51.40;;;;;;5030494;28;20445;-70
2023/10/16 12:14:37;;;;;;;7.20;1.60;;;19.10;49.40;;;;;;5030582;28;20492;-70
2023/10/16 12:17:11;;;;;;;7.07;1.40;;;18.30;53.60;;;;;;5030877;28;20441;-70
2023/10/16 12:19:40;;;;;;;6.30;1.27;;;17.70;54.30;;;;;;5030531;28;20440;-72
2023/10/16 12:22:10;;;;;;;6.10;1.13;;;18.10;55.40;;;;;;5030508;28;20447;-71
2023/10/16 12:24:41;;;;;;;7.53;1.90;;;17.70;55.10;;;;;;5030726;28;20492;-70
2023/10/16 12:27:09;;;;;;;7.80;2.10;;;17.30;54.60;;;;;;5030381;28;20853;-70
2023/10/16 12:29:37;;;;;;;6.93;1.30;;;16.90;55.90;;;;;;5030297;28;20502;-70
2023/10/16 12:32:06;;;;;;;8.13;1.20;;;16.40;57.20;;;;;;5030097;28;20452;-70
2023/10/16 12:34:35;;;;;;;7.30;1.60;;;16.00;59.00;;;;;;5030251;28;20479;-69
2023/10/16 12:37:06;;;;;;;7.07;1.60;;;15.70;57.90;;;;;;5030044;28;20453;-71
2023/10/16 12:39:45;;;;;;;7.23;1.93;;;15.40;60.20;;;;;;5030586;28;20449;-70
2023/10/16 12:42:14;;;;;;;6.30;1.30;;;14.90;58.80;;;;;;5029909;28;20459;-70
2023/10/16 12:44:44;;;;;;;7.10;1.20;;;14.60;60.00;;;;;;5030238;28;20478;-70
2023/10/16 12:47:13;;;;;;;6.90;1.60;;;14.30;58.40;;;;;;5029876;28;20454;-70
2023/10/16 12:49:59;;;;;;;6.70;1.40;;;14.10;61.90;;;;;;5029890;28;20460;-71
2023/10/16 12:52:29;;;;;;;6.97;1.30;;;13.90;65.40;;;;;;5029820;28;20453;-72
2023/10/16 12:55:01;;;;;;;6.10;1.20;;;14.00;66.50;;;;;;5029791;28;20466;-70
2023/10/16 12:57:29;;;;;;;6.90;1.70;;;13.90;61.80;;;;;;5029456;28;20970;-69
2023/10/16 12:59:57;;;;;;;9.40;2.80;;;13.80;61.80;;;;;;5029622;28;20484;-71
2023/10/16 13:02:26;;;;;;;7.10;1.67;;;13.60;62.40;;;;;;5029387;28;20452;-71
2023/10/16 13:04:55;;;;;;;6.57;1.83;;;13.50;68.20;;;;;;5029931;28;20546;-69
2023/10/16 13:07:26;;;;;;;6.70;1.50;;;13.50;64.30;;;;;;5022317;28;20463;-69
2023/10/16 13:10:14;;;;;;;6.27;1.33;;;13.40;64.80;;;;;;5029474;28;20919;-70
2023/10/16 13:12:42;;;;;;;7.30;2.37;;;13.40;67.30;;;;;;5029349;28;20444;-70
2023/10/16 13:15:14;;;;;;;6.30;1.30;;;13.40;66.10;;;;;;5029722;28;20836;-70
2023/10/16 13:17:44;;;;;;;6.30;1.40;;;13.30;63.30;;;;;;5029664;28;21131;-70
2023/10/16 13:20:17;;;;;;;7.50;1.40;;;13.10;65.80;;;;;;5029569;28;20441;-70
2023/10/16 13:22:49;;;;;;;6.87;1.73;;;13.20;67.40;;;;;;5029147;28;20441;-71
2023/10/16 13:25:22;;;;;;;7.53;1.93;;;13.20;65.30;;;;;;5028806;28;20481;-71
2023/10/16 13:27:51;;;;;;;9.30;1.93;;;13.20;64.70;;;;;;5029759;28;20445;-69
2023/10/16 13:30:22;;;;;;;6.57;1.60;;;13.20;67.10;;;;;;5029434;28;20455;-68
2023/10/16 13:32:50;;;;;;;7.17;1.30;;;13.10;66.40;;;;;;5029030;28;20453;-69
2023/10/16 13:35:22;;;;;;;7.07;1.70;;;13.00;61.90;;;;;;5029095;28;20465;-70
2023/10/16 13:37:51;;;;;;;6.40;1.43;;;12.90;64.90;;;;;;5029793;28;20445;-69
2023/10/16 13:40:27;;;;;;;8.93;2.07;;;12.90;66.40;;;;;;5029436;28;20477;-69
2023/10/16 13:43:00;;;;;;;6.77;1.43;;;12.90;67.00;;;;;;5029085;28;20484;-71
2023/10/16 13:45:28;;;;;;;6.87;1.60;;;12.80;65.10;;;;;;5029239;28;20500;-70
2023/10/16 13:47:56;;;;;;;7.90;1.40;;;12.80;64.60;;;;;;5029410;28;20918;-70
2023/10/16 13:50:25;;;;;;;6.70;1.50;;;12.80;61.70;;;;;;5029643;28;20457;-70
2023/10/16 13:52:54;;;;;;;8.37;2.40;;;12.80;66.40;;;;;;5029428;28;20459;-70
2023/10/16 13:55:30;;;;;;;6.63;1.70;;;12.80;65.20;;;;;;5021878;28;20473;-68
2023/10/16 13:57:58;;;;;;;7.10;1.57;;;12.90;63.80;;;;;;5029493;28;20460;-70
2023/10/16 14:00:35;;;;;;;6.77;1.60;;;13.00;67.00;;;;;;5029038;28;20452;-67
2023/10/16 14:03:07;;;;;;;6.87;1.40;;;13.00;64.60;;;;;;5028805;28;20946;-65
2023/10/16 14:05:38;;;;;;;7.10;1.40;;;13.00;62.10;;;;;;5028973;28;20492;-69
2023/10/16 14:08:09;;;;;;;6.80;1.30;;;12.90;63.60;;;;;;5030981;28;20452;-68
2023/10/16 14:10:45;;;;;;;6.30;1.60;;;12.90;65.10;;;;;;5029087;28;20444;-68
2023/10/16 14:13:19;;;;;;;8.10;1.50;;;13.00;64.20;;;;;;5029107;28;20458;-69
2023/10/16 14:15:48;;;;;;;7.43;1.80;;;13.00;64.50;;;;;;5029015;28;20465;-70
2023/10/16 14:18:20;;;;;;;7.30;2.07;;;13.00;65.80;;;;;;5028995;28;20596;-69
2023/10/16 14:20:49;;;;;;;8.20;1.43;;;13.10;66.10;;;;;;5028974;28;21174;-68
2023/10/16 14:23:19;;;;;;;7.33;1.53;;;13.00;64.00;;;;;;5025607;28;20915;-67
2023/10/16 14:25:49;;;;;;;6.87;1.50;;;13.00;65.30;;;;;;5029004;28;20488;-68